Time;durP1;ratioP1;P1;durP2;ratioP2;P2;SDS_P1;SDS_P2;PMS_P1;PMS_P2;Temp;Humidity;BMP_temperature;BMP_pressure;BME280_temperature;BME280_humidity;BME280_pressure;Samples;Min_cycle;Max_cycle;Signal;HPM_P1;HPM_P2
2022/10/17 00:01:44;;;;;;;11.90;5.70;;;15.10;1.00;;;;;;5027400;28;20291;-68
2022/10/17 00:04:10;;;;;;;14.17;6.70;;;15.00;1.00;;;;;;5028928;28;20262;-64
2022/10/17 00:06:36;;;;;;;20.80;6.50;;;14.90;1.00;;;;;;5028588;28;20164;-68
2022/10/17 00:09:02;;;;;;;8.60;5.43;;;14.90;1.00;;;;;;5028426;28;20263;-68
2022/10/17 00:11:28;;;;;;;11.27;5.83;;;14.90;1.00;;;;;;5027868;28;20871;-66
2022/10/17 00:13:55;;;;;;;8.60;5.60;;;14.80;1.00;;;;;;5028428;28;20406;-65
2022/10/17 00:16:29;;;;;;;10.90;4.10;;;14.90;1.00;;;;;;5027902;28;20175;-65
2022/10/17 00:18:55;;;;;;;12.70;5.57;;;14.80;1.00;;;;;;5029106;28;20935;-67
2022/10/17 00:21:22;;;;;;;11.73;3.73;;;14.90;1.00;;;;;;5027871;28;20472;-66
2022/10/17 00:23:48;;;;;;;5.27;4.30;;;14.90;1.00;;;;;;5028384;28;20414;-66
2022/10/17 00:26:15;;;;;;;5.37;4.33;;;14.90;1.00;;;;;;5028207;28;20510;-67
2022/10/17 00:28:41;;;;;;;10.60;3.90;;;14.90;1.00;;;;;;5028206;28;20278;-67
2022/10/17 00:31:07;;;;;;;8.90;3.90;;;14.90;1.00;;;;;;5030354;28;21210;-66
2022/10/17 00:33:34;;;;;;;25.20;4.13;;;14.80;1.00;;;;;;5032389;28;20422;-66
2022/10/17 00:36:12;;;;;;;13.40;5.60;;;14.90;1.00;;;;;;5032042;28;20459;-66
2022/10/17 00:38:38;;;;;;;5.97;4.20;;;14.90;1.00;;;;;;5032221;28;20536;-65
2022/10/17 00:41:05;;;;;;;4.70;4.00;;;14.90;1.00;;;;;;5031352;28;20421;-67
2022/10/17 00:43:56;;;;;;;5.43;4.40;;;14.90;1.00;;;;;;5032686;28;20399;-66
2022/10/17 00:46:24;;;;;;;9.37;4.23;;;14.80;1.00;;;;;;5031854;28;20405;-65
2022/10/17 00:48:52;;;;;;;11.07;4.50;;;14.80;1.00;;;;;;5032154;28;20545;-65
2022/10/17 00:51:24;;;;;;;5.63;3.43;;;14.70;1.00;;;;;;5031654;28;20438;-65
2022/10/17 00:53:50;;;;;;;13.53;3.70;;;14.70;1.00;;;;;;5032624;28;20421;-65
2022/10/17 00:56:19;;;;;;;11.30;4.63;;;14.70;1.00;;;;;;5031219;28;20428;-65
2022/10/17 00:58:45;;;;;;;13.77;4.90;;;14.70;1.00;;;;;;5032167;28;20437;-67
2022/10/17 01:01:11;;;;;;;5.80;4.50;;;14.60;1.00;;;;;;5039872;28;20596;-66
2022/10/17 01:03:36;;;;;;;13.73;5.13;;;14.60;1.00;;;;;;5052487;28;20273;-65
2022/10/17 01:06:02;;;;;;;7.93;3.33;;;14.60;1.00;;;;;;5052066;28;20178;-65
2022/10/17 01:08:28;;;;;;;7.30;4.07;;;14.60;1.00;;;;;;5052386;28;20191;-65
2022/10/17 01:11:14;;;;;;;7.73;4.17;;;14.50;1.00;;;;;;5051479;28;20166;-66
2022/10/17 01:13:57;;;;;;;8.70;4.13;;;14.50;1.00;;;;;;5051698;28;20171;-66
2022/10/17 01:17:04;;;;;;;6.03;3.63;;;14.50;1.00;;;;;;5051250;28;20397;-66
2022/10/17 01:20:24;;;;;;;11.57;4.57;;;14.40;1.00;;;;;;5038498;28;20491;-66
2022/10/17 01:23:28;;;;;;;11.43;4.43;;;14.40;1.00;;;;;;4950764;29;20465;-65
2022/10/17 01:26:17;;;;;;;10.90;4.10;;;14.40;1.00;;;;;;5020499;28;20729;-66
2022/10/17 01:28:42;;;;;;;6.47;3.80;;;14.50;1.00;;;;;;5051929;28;20842;-67
2022/10/17 01:31:36;;;;;;;8.33;3.37;;;14.40;1.00;;;;;;5050203;28;20500;-66
2022/10/17 01:34:24;;;;;;;6.30;3.40;;;14.40;1.00;;;;;;5051527;28;20274;-67
2022/10/17 01:36:52;;;;;;;7.90;3.57;;;14.40;1.00;;;;;;5051295;28;20397;-67
2022/10/17 01:39:18;;;;;;;30.30;6.23;;;14.30;1.00;;;;;;5051382;28;20801;-66
2022/10/17 01:41:59;;;;;;;11.00;4.37;;;14.30;1.00;;;;;;5049015;28;20453;-67
2022/10/17 01:44:40;;;;;;;13.13;4.67;;;14.30;1.00;;;;;;5051017;28;20171;-66
2022/10/17 01:47:10;;;;;;;12.37;4.50;;;14.20;1.00;;;;;;5050598;28;20504;-66
2022/10/17 01:49:39;;;;;;;9.53;3.90;;;14.20;1.00;;;;;;5051705;28;20424;-66
2022/10/17 01:52:13;;;;;;;7.03;4.17;;;14.20;1.00;;;;;;5050414;28;20939;-67
2022/10/17 01:54:45;;;;;;;9.83;3.60;;;14.10;1.00;;;;;;5051923;28;20402;-67
2022/10/17 01:57:28;;;;;;;5.80;3.50;;;14.20;1.00;;;;;;5050604;28;20420;-67
2022/10/17 01:59:54;;;;;;;4.30;3.07;;;14.20;1.00;;;;;;5051716;28;20429;-66
2022/10/17 02:02:22;;;;;;;6.47;3.90;;;14.10;1.00;;;;;;5050481;28;20484;-67
2022/10/17 02:04:50;;;;;;;6.00;3.67;;;14.20;1.00;;;;;;5051856;28;20448;-66
2022/10/17 02:07:16;;;;;;;5.03;3.70;;;14.20;1.00;;;;;;5051171;28;20933;-67
2022/10/17 02:09:42;;;;;;;8.13;4.20;;;14.10;1.00;;;;;;5050866;28;20464;-67
2022/10/17 02:12:29;;;;;;;4.50;3.73;;;14.00;1.00;;;;;;5050446;28;20177;-67
2022/10/17 02:15:10;;;;;;;6.00;3.70;;;13.90;99.90;;;;;;5050552;28;20397;-66
2022/10/17 02:17:35;;;;;;;7.70;4.23;;;13.80;99.90;;;;;;5050517;28;20508;-66
2022/10/17 02:20:01;;;;;;;7.73;4.17;;;13.80;99.90;;;;;;5050911;28;20578;-67
2022/10/17 02:22:44;;;;;;;6.57;2.97;;;13.80;99.90;;;;;;5049737;28;20233;-67
2022/10/17 02:25:31;;;;;;;3.60;3.30;;;13.70;1.00;;;;;;5050399;28;20179;-67
2022/10/17 02:28:32;;;;;;;5.43;3.00;;;13.70;1.00;;;;;;5050617;28;20500;-67
2022/10/17 02:31:11;;;;;;;10.23;4.10;;;13.60;99.90;;;;;;5043708;28;20425;-67
2022/10/17 02:33:48;;;;;;;4.33;3.87;;;13.60;99.90;;;;;;5050282;28;20405;-67
2022/10/17 02:36:19;;;;;;;6.70;4.17;;;13.50;99.90;;;;;;5049963;28;20881;-66
2022/10/17 02:38:46;;;;;;;9.07;3.50;;;13.50;99.90;;;;;;5050368;28;20420;-67
2022/10/17 02:41:16;;;;;;;7.17;4.80;;;13.40;99.90;;;;;;5049012;28;20488;-66
2022/10/17 02:43:44;;;;;;;16.30;5.10;;;13.20;1.00;;;;;;5050192;28;20402;-66
2022/10/17 02:46:19;;;;;;;11.67;3.70;;;13.30;1.00;;;;;;5049571;28;20514;-66
2022/10/17 02:48:52;;;;;;;4.37;3.77;;;13.30;1.00;;;;;;5049492;28;20435;-67
2022/10/17 02:51:36;;;;;;;6.53;3.53;;;13.30;1.00;;;;;;5048932;28;21138;-67
2022/10/17 02:54:21;;;;;;;10.03;3.70;;;13.40;1.00;;;;;;5049354;28;20736;-66
2022/10/17 02:57:17;;;;;;;19.00;3.70;;;13.50;1.00;;;;;;5048758;28;20864;-66
2022/10/17 02:59:44;;;;;;;8.20;3.13;;;13.50;1.00;;;;;;5049795;28;20429;-66
2022/10/17 03:02:10;;;;;;;6.33;4.17;;;13.50;1.00;;;;;;5048541;28;20452;-67
2022/10/17 03:04:37;;;;;;;8.13;4.03;;;13.50;1.00;;;;;;5049923;28;20398;-67
2022/10/17 03:07:02;;;;;;;4.40;3.53;;;13.50;1.00;;;;;;5049493;28;20466;-67
2022/10/17 03:09:28;;;;;;;9.67;4.00;;;13.40;1.00;;;;;;5050037;28;20542;-66
2022/10/17 03:11:54;;;;;;;9.83;4.53;;;13.40;1.00;;;;;;5048889;28;20170;-66
2022/10/17 03:14:20;;;;;;;4.50;3.57;;;13.50;1.00;;;;;;5050491;28;20212;-66
2022/10/17 03:16:45;;;;;;;6.50;4.27;;;13.40;1.00;;;;;;5049135;28;20186;-66
2022/10/17 03:19:11;;;;;;;9.03;4.07;;;13.40;1.00;;;;;;5049488;28;20195;-66
2022/10/17 03:21:37;;;;;;;17.53;5.37;;;13.40;1.00;;;;;;5048893;28;20191;-66
2022/10/17 03:24:03;;;;;;;7.50;3.27;;;13.40;1.00;;;;;;5050464;28;20162;-67
2022/10/17 03:26:29;;;;;;;9.00;3.70;;;13.40;1.00;;;;;;5049645;28;20167;-66
2022/10/17 03:28:55;;;;;;;5.87;3.87;;;13.40;1.00;;;;;;5049694;28;20452;-66
2022/10/17 03:31:21;;;;;;;9.03;4.40;;;13.40;1.00;;;;;;5048019;28;20171;-67
2022/10/17 03:33:47;;;;;;;9.20;4.47;;;13.40;1.00;;;;;;5049720;28;20170;-66
2022/10/17 03:36:16;;;;;;;9.73;4.80;;;13.40;1.00;;;;;;5049522;28;20554;-67
2022/10/17 03:38:42;;;;;;;13.90;4.50;;;13.40;1.00;;;;;;5049463;28;20274;-68
2022/10/17 03:41:08;;;;;;;7.10;4.77;;;13.30;1.00;;;;;;5048335;28;20409;-66
2022/10/17 03:43:34;;;;;;;7.50;4.90;;;13.20;1.00;;;;;;5049109;28;20455;-66
2022/10/17 03:46:01;;;;;;;5.90;4.60;;;13.20;1.00;;;;;;5048435;28;20171;-66
2022/10/17 03:48:27;;;;;;;7.37;4.00;;;13.30;1.00;;;;;;5049339;28;20774;-66
2022/10/17 03:51:14;;;;;;;7.30;4.20;;;13.20;1.00;;;;;;5043749;28;20430;-68
2022/10/17 03:53:40;;;;;;;8.33;4.97;;;13.20;1.00;;;;;;5029282;28;20498;-66
2022/10/17 03:56:15;;;;;;;4.47;3.77;;;13.10;1.00;;;;;;5027457;28;20584;-68
2022/10/17 03:58:41;;;;;;;9.90;4.50;;;13.10;1.00;;;;;;5029144;28;20309;-68
2022/10/17 04:01:08;;;;;;;8.97;5.20;;;13.10;1.00;;;;;;5027554;28;20485;-69
2022/10/17 04:03:34;;;;;;;11.87;6.43;;;13.10;1.00;;;;;;5029358;28;20434;-67
2022/10/17 04:06:02;;;;;;;8.87;4.53;;;13.10;1.00;;;;;;5028073;28;20905;-66
2022/10/17 04:08:28;;;;;;;14.17;5.30;;;13.10;1.00;;;;;;5028714;28;20225;-67
2022/10/17 04:11:01;;;;;;;19.33;5.53;;;13.10;1.00;;;;;;5027979;28;20830;-67
2022/10/17 04:13:27;;;;;;;21.03;5.30;;;13.00;1.00;;;;;;5029262;28;20174;-67
2022/10/17 04:15:59;;;;;;;7.53;4.70;;;12.90;1.00;;;;;;5028432;28;20866;-67
2022/10/17 04:18:25;;;;;;;9.50;4.50;;;13.00;1.00;;;;;;5028820;28;20974;-67
2022/10/17 04:20:51;;;;;;;18.43;4.80;;;12.90;1.00;;;;;;5027840;28;20574;-67
2022/10/17 04:23:17;;;;;;;7.20;3.53;;;13.00;1.00;;;;;;5028830;28;20206;-66
2022/10/17 04:25:43;;;;;;;14.70;5.27;;;13.00;1.00;;;;;;5028691;28;20853;-67
2022/10/17 04:28:08;;;;;;;12.47;4.93;;;13.00;1.00;;;;;;5028361;28;20497;-67
2022/10/17 04:30:34;;;;;;;10.07;6.40;;;13.00;1.00;;;;;;5027455;28;20566;-67
2022/10/17 04:33:00;;;;;;;15.97;5.30;;;13.00;1.00;;;;;;5028800;28;20182;-67
2022/10/17 04:35:25;;;;;;;17.83;4.50;;;13.00;1.00;;;;;;5028548;28;20577;-67
2022/10/17 04:37:51;;;;;;;8.50;5.10;;;13.00;1.00;;;;;;5028552;28;20484;-66
2022/10/17 04:40:17;;;;;;;9.57;4.40;;;13.00;1.00;;;;;;5028179;28;20199;-67
2022/10/17 04:42:43;;;;;;;11.43;5.10;;;12.90;1.00;;;;;;5027632;28;20305;-67
2022/10/17 04:45:09;;;;;;;8.63;4.90;;;12.90;1.00;;;;;;5028724;28;20509;-67
2022/10/17 04:47:34;;;;;;;19.73;7.37;;;12.90;1.00;;;;;;5028685;28;20172;-67
2022/10/17 04:50:00;;;;;;;8.37;6.60;;;12.90;1.00;;;;;;5029171;28;20275;-67
2022/10/17 04:52:26;;;;;;;11.23;5.57;;;12.80;1.00;;;;;;5021464;28;20562;-67
2022/10/17 04:54:52;;;;;;;18.43;5.63;;;12.80;1.00;;;;;;5026507;28;20645;-67
2022/10/17 04:57:18;;;;;;;23.30;7.57;;;12.80;1.00;;;;;;5026991;28;20203;-67
2022/10/17 04:59:44;;;;;;;23.23;5.80;;;12.80;1.00;;;;;;5027227;28;20234;-67
2022/10/17 05:02:10;;;;;;;22.83;5.63;;;12.80;1.00;;;;;;5021659;28;20921;-67
2022/10/17 05:04:36;;;;;;;5.47;4.20;;;12.80;1.00;;;;;;5028580;28;20608;-67
2022/10/17 05:07:02;;;;;;;5.17;4.63;;;12.70;1.00;;;;;;5027371;28;20426;-67
2022/10/17 05:09:28;;;;;;;7.60;4.60;;;12.60;1.00;;;;;;5015839;28;20735;-67
2022/10/17 05:11:54;;;;;;;10.50;4.90;;;12.60;1.00;;;;;;5017232;28;20501;-67
2022/10/17 05:14:20;;;;;;;9.07;4.63;;;12.60;1.00;;;;;;5016893;28;20200;-67
2022/10/17 05:16:45;;;;;;;8.63;4.70;;;12.60;1.00;;;;;;5018000;28;20198;-67
2022/10/17 05:19:11;;;;;;;6.70;4.87;;;12.70;1.00;;;;;;5020902;28;20981;-67
2022/10/17 05:21:37;;;;;;;17.63;5.90;;;12.40;1.00;;;;;;5015900;28;20494;-67
2022/10/17 05:24:08;;;;;;;8.50;5.23;;;12.50;1.00;;;;;;5007829;28;20172;-67
2022/10/17 05:26:33;;;;;;;15.27;4.80;;;12.50;1.00;;;;;;5039150;28;20937;-67
2022/10/17 05:29:04;;;;;;;17.37;7.00;;;12.40;1.00;;;;;;5038419;28;20469;-67
2022/10/17 05:31:30;;;;;;;27.67;5.80;;;12.50;1.00;;;;;;5035080;28;20249;-67
2022/10/17 05:34:01;;;;;;;27.90;5.97;;;12.60;1.00;;;;;;5031568;28;20492;-63
2022/10/17 05:36:27;;;;;;;19.97;6.70;;;12.60;99.90;;;;;;5029642;28;20525;-67
2022/10/17 05:38:52;;;;;;;13.67;5.50;;;12.60;99.90;;;;;;5025929;28;20452;-68
2022/10/17 05:41:19;;;;;;;38.47;7.70;;;12.60;99.90;;;;;;5035568;28;21224;-67
2022/10/17 05:43:44;;;;;;;20.90;6.33;;;12.60;99.90;;;;;;5028631;28;20590;-68
2022/10/17 05:46:10;;;;;;;26.40;6.17;;;12.70;99.90;;;;;;5027719;28;20525;-68
2022/10/17 05:48:36;;;;;;;22.43;5.67;;;12.70;99.90;;;;;;5029212;28;20277;-66
2022/10/17 05:51:06;;;;;;;10.77;4.00;;;12.70;99.90;;;;;;5035610;28;20183;-67
2022/10/17 05:53:33;;;;;;;72.47;10.13;;;12.90;99.90;;;;;;5039132;28;20175;-68
2022/10/17 05:56:01;;;;;;;19.13;7.10;;;13.30;1.00;;;;;;5034006;28;20419;-66
2022/10/17 05:58:27;;;;;;;18.27;5.40;;;13.60;1.00;;;;;;5027670;28;20446;-66
2022/10/17 06:01:05;;;;;;;27.60;7.23;;;13.60;99.90;;;;;;5026473;28;20429;-67
2022/10/17 06:03:32;;;;;;;13.70;5.40;;;13.50;99.90;;;;;;5028529;28;20406;-68
2022/10/17 06:06:03;;;;;;;9.63;4.70;;;13.60;1.00;;;;;;5027697;28;20402;-66
2022/10/17 06:08:29;;;;;;;26.43;7.80;;;13.80;1.00;;;;;;5027859;28;20422;-68
2022/10/17 06:10:55;;;;;;;16.10;6.10;;;14.70;99.90;;;;;;5026360;28;20913;-67
2022/10/17 06:13:21;;;;;;;77.63;10.43;;;15.40;2.10;;;;;;5027967;28;20425;-68
2022/10/17 06:15:46;;;;;;;25.13;8.20;;;16.10;99.90;;;;;;5027564;28;20187;-68
2022/10/17 06:18:12;;;;;;;52.20;9.70;;;17.00;1.00;;;;;;5027072;28;20651;-67
2022/10/17 06:20:38;;;;;;;67.50;12.33;;;18.00;1.00;;;;;;5026527;28;20689;-65
2022/10/17 06:23:05;;;;;;;41.20;12.53;;;19.20;1.00;;;;;;5020174;28;20357;-67
2022/10/17 06:25:31;;;;;;;21.67;6.40;;;20.10;1.00;;;;;;5029350;28;21054;-67
2022/10/17 06:27:57;;;;;;;30.87;6.03;;;20.80;99.90;;;;;;5027458;28;20533;-69
2022/10/17 06:30:22;;;;;;;50.77;8.20;;;21.10;99.90;;;;;;5028512;28;20475;-66
2022/10/17 06:32:48;;;;;;;17.03;5.33;;;21.70;99.90;;;;;;5029139;28;20652;-67
2022/10/17 06:35:14;;;;;;;13.67;5.20;;;22.40;99.90;;;;;;5029439;28;20202;-67
2022/10/17 06:37:40;;;;;;;49.53;8.10;;;22.20;99.90;;;;;;5028729;28;20258;-66
2022/10/17 06:40:07;;;;;;;55.00;7.60;;;22.70;99.90;;;;;;5035162;28;20195;-66
2022/10/17 06:42:33;;;;;;;11.37;4.50;;;22.80;99.90;;;;;;5038786;28;20296;-66
2022/10/17 06:44:59;;;;;;;13.20;4.97;;;22.00;99.90;;;;;;5034628;28;20434;-67
2022/10/17 06:47:25;;;;;;;17.97;4.60;;;21.00;99.90;;;;;;5038380;28;20170;-65
2022/10/17 06:49:50;;;;;;;28.77;5.60;;;20.50;99.90;;;;;;5047780;28;20269;-68
2022/10/17 06:52:16;;;;;;;11.40;3.40;;;21.50;99.90;;;;;;5046511;28;20679;-64
2022/10/17 06:54:43;;;;;;;24.53;5.07;;;22.60;99.90;;;;;;5045106;28;20174;-67
2022/10/17 06:57:09;;;;;;;20.13;4.03;;;23.50;99.90;;;;;;5039554;28;20297;-67
2022/10/17 06:59:35;;;;;;;17.97;4.03;;;24.00;99.90;;;;;;5011304;28;20515;-67
2022/10/17 07:02:01;;;;;;;13.13;3.67;;;24.10;99.90;;;;;;5028282;28;20454;-68
2022/10/17 07:04:27;;;;;;;42.53;5.77;;;23.60;99.90;;;;;;5029252;28;20171;-68
2022/10/17 07:06:53;;;;;;;10.70;4.70;;;23.30;99.90;;;;;;5029881;28;20563;-67
2022/10/17 07:09:19;;;;;;;15.30;3.70;;;23.60;99.90;;;;;;5029820;28;20564;-69
2022/10/17 07:11:45;;;;;;;11.57;4.97;;;23.50;99.90;;;;;;5028705;28;20406;-68
2022/10/17 07:14:10;;;;;;;8.63;4.20;;;23.30;99.90;;;;;;5029353;28;20171;-68
2022/10/17 07:16:36;;;;;;;50.07;8.73;;;23.60;99.90;;;;;;5029314;28;20171;-68
2022/10/17 07:19:02;;;;;;;23.57;7.30;;;24.10;99.90;;;;;;5029511;28;20187;-67
2022/10/17 07:21:28;;;;;;;16.60;5.87;;;25.10;99.90;;;;;;5028329;28;20252;-67
2022/10/17 07:23:54;;;;;;;35.67;7.77;;;25.50;99.90;;;;;;5029884;28;20489;-66
2022/10/17 07:26:20;;;;;;;35.87;8.33;;;25.10;99.90;;;;;;5029293;28;20321;-66
2022/10/17 07:28:49;;;;;;;26.87;7.20;;;25.30;99.90;;;;;;5029787;28;20206;-68
2022/10/17 07:31:17;;;;;;;14.70;7.53;;;25.70;99.90;;;;;;5027640;28;20508;-68
2022/10/17 07:33:44;;;;;;;27.33;7.03;;;26.40;99.90;;;;;;5029407;28;20409;-68
2022/10/17 07:36:10;;;;;;;27.77;7.33;;;27.30;99.90;;;;;;5028832;28;20433;-67
2022/10/17 07:38:36;;;;;;;25.73;7.00;;;27.30;99.90;;;;;;5029300;28;20418;-68
2022/10/17 07:41:04;;;;;;;34.20;7.00;;;27.00;99.90;;;;;;5028103;28;20266;-68
2022/10/17 07:43:31;;;;;;;18.07;5.37;;;26.80;99.90;;;;;;5028909;28;20453;-68
2022/10/17 07:45:57;;;;;;;12.80;4.60;;;27.00;99.90;;;;;;5028421;28;20410;-68
2022/10/17 07:48:23;;;;;;;7.67;4.60;;;27.40;99.90;;;;;;5029106;28;20407;-67
2022/10/17 07:50:50;;;;;;;6.40;4.63;;;27.10;99.90;;;;;;5027495;28;20429;-67
2022/10/17 07:53:16;;;;;;;9.83;4.50;;;26.40;99.90;;;;;;5028146;28;20406;-68
2022/10/17 07:55:43;;;;;;;8.10;4.07;;;25.50;99.90;;;;;;5027009;28;20483;-68
2022/10/17 07:58:09;;;;;;;7.30;4.10;;;24.90;99.90;;;;;;5011105;28;20518;-68
2022/10/17 08:00:36;;;;;;;7.47;5.23;;;24.80;99.90;;;;;;5027337;28;20489;-66
2022/10/17 08:03:02;;;;;;;9.47;4.60;;;24.60;99.90;;;;;;5029986;28;20605;-68
2022/10/17 08:05:29;;;;;;;10.40;4.00;;;24.40;99.90;;;;;;5029475;28;20773;-67
2022/10/17 08:07:54;;;;;;;7.43;4.60;;;23.90;99.90;;;;;;5029059;28;20485;-67
2022/10/17 08:10:26;;;;;;;132.37;15.87;;;24.00;99.90;;;;;;5028251;28;20526;-68
2022/10/17 08:12:55;;;;;;;17.70;4.87;;;24.10;99.90;;;;;;5028470;28;20251;-68
2022/10/17 08:15:22;;;;;;;19.97;4.63;;;24.00;99.90;;;;;;5028636;28;20406;-69
2022/10/17 08:17:48;;;;;;;24.20;4.30;;;23.60;99.90;;;;;;5027999;28;20490;-67
2022/10/17 08:20:13;;;;;;;15.50;4.03;;;23.50;99.90;;;;;;5027919;28;20539;-67
2022/10/17 08:22:39;;;;;;;10.37;3.93;;;23.50;99.90;;;;;;5027716;28;20991;-66
2022/10/17 08:25:05;;;;;;;22.57;6.00;;;23.70;99.90;;;;;;5028705;28;20199;-68
2022/10/17 08:27:34;;;;;;;27.83;8.87;;;23.50;99.90;;;;;;5028256;28;20218;-68
2022/10/17 08:30:00;;;;;;;59.43;12.10;;;23.20;99.90;;;;;;5028304;28;20446;-68
2022/10/17 08:32:28;;;;;;;50.63;14.57;;;23.20;99.90;;;;;;5027175;28;20496;-68
2022/10/17 08:34:55;;;;;;;44.20;14.80;;;23.50;99.90;;;;;;5028169;28;20585;-67
2022/10/17 08:37:22;;;;;;;65.40;15.33;;;23.30;99.90;;;;;;5028065;28;20549;-67
2022/10/17 08:39:47;;;;;;;33.73;11.87;;;23.00;99.90;;;;;;5028308;28;20430;-69
2022/10/17 08:42:35;;;;;;;29.47;10.57;;;23.00;99.90;;;;;;5027168;28;20454;-68
2022/10/17 08:45:26;;;;;;;32.57;8.77;;;23.20;99.90;;;;;;5028514;28;20200;-68
2022/10/17 08:47:57;;;;;;;18.83;8.20;;;23.50;99.90;;;;;;5027995;28;20414;-68
2022/10/17 08:51:00;;;;;;;20.13;6.40;;;23.60;99.90;;;;;;5028117;28;20468;-67
2022/10/17 08:53:38;;;;;;;24.77;8.40;;;23.60;99.90;;;;;;5017112;28;20442;-68
2022/10/17 08:56:37;;;;;;;32.77;9.70;;;23.40;99.90;;;;;;5030196;28;20414;-67
2022/10/17 08:59:15;;;;;;;25.37;7.77;;;22.90;99.90;;;;;;5032250;28;20932;-68
2022/10/17 09:01:48;;;;;;;28.30;7.03;;;23.00;99.90;;;;;;5030706;28;20462;-69
2022/10/17 09:04:27;;;;;;;22.53;7.57;;;23.10;99.90;;;;;;5032992;28;20768;-67
2022/10/17 09:07:09;;;;;;;32.77;8.67;;;23.40;99.90;;;;;;5032801;28;20406;-68
2022/10/17 09:09:54;;;;;;;29.03;6.67;;;23.30;99.90;;;;;;5032763;28;20782;-69
2022/10/17 09:12:28;;;;;;;29.10;5.80;;;23.40;99.90;;;;;;5031274;28;20776;-66
2022/10/17 09:15:08;;;;;;;64.20;11.40;;;23.60;99.90;;;;;;5032928;28;20894;-69
2022/10/17 09:17:54;;;;;;;19.13;7.20;;;23.70;99.90;;;;;;5031929;28;20798;-69
2022/10/17 09:20:24;;;;;;;18.20;7.43;;;23.60;99.90;;;;;;5031887;28;20814;-69
2022/10/17 09:23:12;;;;;;;9.77;6.00;;;23.70;99.90;;;;;;5031905;28;20453;-69
2022/10/17 09:25:49;;;;;;;51.80;9.47;;;23.80;99.90;;;;;;5032048;28;20410;-67
2022/10/17 09:28:26;;;;;;;18.03;6.70;;;23.60;99.90;;;;;;5031900;28;20410;-69
2022/10/17 09:31:03;;;;;;;45.60;7.67;;;23.80;99.90;;;;;;5030322;28;20478;-68
2022/10/17 09:33:40;;;;;;;30.10;6.80;;;23.90;99.90;;;;;;5031365;28;20403;-67
2022/10/17 09:36:26;;;;;;;17.43;6.03;;;23.90;99.90;;;;;;5031395;28;20413;-68
2022/10/17 09:39:15;;;;;;;46.60;9.53;;;23.80;99.90;;;;;;5031785;28;20418;-69
2022/10/17 09:41:50;;;;;;;23.00;6.77;;;23.70;99.90;;;;;;5030604;28;20478;-68
2022/10/17 09:44:20;;;;;;;23.60;6.87;;;23.60;99.90;;;;;;5031850;28;20405;-68
2022/10/17 09:47:15;;;;;;;34.37;7.13;;;23.50;99.90;;;;;;5031239;28;20422;-67
2022/10/17 09:49:44;;;;;;;25.63;7.50;;;23.40;99.90;;;;;;5020179;28;20838;-69
2022/10/17 09:52:18;;;;;;;77.33;12.60;;;23.30;99.90;;;;;;5030718;28;20468;-67
2022/10/17 09:54:50;;;;;;;119.67;18.10;;;23.30;99.90;;;;;;5029921;28;20410;-67
2022/10/17 09:57:17;;;;;;;39.17;8.90;;;23.50;99.90;;;;;;5031344;28;20422;-67
2022/10/17 09:59:46;;;;;;;122.60;17.17;;;23.50;99.90;;;;;;5030983;28;20832;-68
2022/10/17 10:02:12;;;;;;;99.37;17.00;;;23.50;99.90;;;;;;5033501;28;20458;-66
2022/10/17 10:05:00;;;;;;;109.60;15.37;;;23.50;99.90;;;;;;5030539;28;20406;-68
2022/10/17 10:07:29;;;;;;;35.80;8.50;;;23.30;99.90;;;;;;5030673;28;20190;-68
2022/10/17 10:09:56;;;;;;;34.83;8.70;;;23.10;99.90;;;;;;5030622;28;20472;-68
2022/10/17 10:12:28;;;;;;;25.67;8.30;;;23.10;99.90;;;;;;5030274;28;20410;-69
2022/10/17 10:14:54;;;;;;;26.03;7.00;;;23.10;99.90;;;;;;5031162;28;20746;-69
2022/10/17 10:17:32;;;;;;;65.67;9.93;;;23.10;99.90;;;;;;5030463;28;20402;-69
2022/10/17 10:19:58;;;;;;;87.57;13.57;;;23.10;99.90;;;;;;5031028;28;21000;-69
2022/10/17 10:22:24;;;;;;;59.40;10.83;;;23.10;99.90;;;;;;5030658;28;20462;-69
2022/10/17 10:25:07;;;;;;;26.20;5.83;;;23.30;99.90;;;;;;5032297;28;20411;-69
2022/10/17 10:27:33;;;;;;;98.83;13.00;;;23.20;99.90;;;;;;5031383;28;20180;-69
2022/10/17 10:29:59;;;;;;;29.40;5.50;;;23.20;99.90;;;;;;5030758;28;20473;-66
2022/10/17 10:32:33;;;;;;;44.43;7.10;;;23.10;99.90;;;;;;5030156;28;20875;-67
2022/10/17 10:35:19;;;;;;;57.97;8.60;;;23.30;99.90;;;;;;5031571;28;20171;-67
2022/10/17 10:37:48;;;;;;;40.47;8.00;;;23.30;99.90;;;;;;5034241;28;20801;-68
2022/10/17 10:40:43;;;;;;;8.07;4.13;;;23.00;99.90;;;;;;5032325;28;20434;-67
2022/10/17 10:43:30;;;;;;;8.87;4.50;;;22.50;99.90;;;;;;5030835;28;20962;-67
2022/10/17 10:45:57;;;;;;;39.83;6.50;;;22.60;99.90;;;;;;5030426;28;20406;-68
2022/10/17 10:48:34;;;;;;;44.43;8.53;;;22.70;99.90;;;;;;5030993;28;20549;-67
2022/10/17 10:51:23;;;;;;;182.50;17.67;;;22.70;99.90;;;;;;5029569;28;20460;-67
2022/10/17 10:54:02;;;;;;;64.70;10.27;;;22.90;99.90;;;;;;5030565;28;20413;-67
2022/10/17 10:56:37;;;;;;;80.70;12.87;;;23.10;99.90;;;;;;5039371;28;20486;-67
2022/10/17 10:59:27;;;;;;;31.07;6.33;;;23.30;99.90;;;;;;5038841;28;20857;-66
2022/10/17 11:02:09;;;;;;;19.40;6.20;;;23.10;99.90;;;;;;5045068;28;20461;-67
2022/10/17 11:04:46;;;;;;;17.10;5.10;;;23.10;99.90;;;;;;5033658;28;20433;-66
2022/10/17 11:07:27;;;;;;;12.53;4.30;;;23.00;99.90;;;;;;5029623;28;20437;-66
2022/10/17 11:10:02;;;;;;;13.37;4.93;;;23.20;99.90;;;;;;5028145;28;20994;-66
2022/10/17 11:12:51;;;;;;;91.17;10.93;;;23.20;99.90;;;;;;5026451;28;20803;-66
2022/10/17 11:15:42;;;;;;;102.53;13.60;;;23.40;99.90;;;;;;5030427;28;20418;-65
2022/10/17 11:18:13;;;;;;;25.87;6.10;;;23.40;99.90;;;;;;5028747;28;20864;-65
2022/10/17 11:20:58;;;;;;;16.80;4.90;;;23.30;99.90;;;;;;5037214;28;20398;-66
2022/10/17 11:23:36;;;;;;;25.00;5.87;;;23.50;99.90;;;;;;5028733;28;20599;-65
2022/10/17 11:26:07;;;;;;;22.53;4.93;;;23.50;99.90;;;;;;5030418;28;20954;-66
2022/10/17 11:28:33;;;;;;;15.00;5.90;;;23.60;99.90;;;;;;5029958;28;20438;-65
2022/10/17 11:31:00;;;;;;;24.80;6.17;;;23.50;99.90;;;;;;5026492;28;20495;-65
2022/10/17 11:33:45;;;;;;;62.43;10.00;;;23.60;99.90;;;;;;5033524;28;20171;-66
2022/10/17 11:36:13;;;;;;;63.20;10.23;;;23.60;99.90;;;;;;5030536;28;20465;-66
2022/10/17 11:39:04;;;;;;;32.90;5.93;;;23.60;99.90;;;;;;5029609;28;20954;-65
2022/10/17 11:42:11;;;;;;;50.33;7.50;;;23.60;99.90;;;;;;5027458;28;20795;-66
2022/10/17 11:44:39;;;;;;;126.50;14.97;;;23.70;99.90;;;;;;5026746;28;20500;-65
2022/10/17 11:47:13;;;;;;;29.87;6.60;;;23.60;99.90;;;;;;5028441;28;20419;-65
2022/10/17 11:49:46;;;;;;;17.70;4.23;;;23.50;99.90;;;;;;5028973;28;20449;-69
2022/10/17 11:52:33;;;;;;;22.80;4.87;;;23.60;99.90;;;;;;5027274;28;20936;-68
2022/10/17 11:55:04;;;;;;;11.83;3.43;;;23.50;99.90;;;;;;5026717;28;20481;-68
2022/10/17 11:57:55;;;;;;;10.07;4.27;;;23.60;99.90;;;;;;5026958;28;20437;-68
2022/10/17 12:00:20;;;;;;;38.40;6.70;;;23.60;99.90;;;;;;5026906;28;20540;-67
2022/10/17 12:03:01;;;;;;;48.63;9.93;;;23.60;99.90;;;;;;5027598;28;20548;-67
2022/10/17 12:05:33;;;;;;;77.03;10.83;;;23.50;99.90;;;;;;5027332;28;20263;-67
2022/10/17 12:07:58;;;;;;;46.47;7.50;;;23.50;99.90;;;;;;5029321;28;20450;-68
2022/10/17 12:11:18;;;;;;;26.03;5.80;;;23.50;99.90;;;;;;5027029;28;20911;-67
2022/10/17 12:13:50;;;;;;;17.40;4.80;;;23.50;99.90;;;;;;4927885;29;20193;-67
2022/10/17 12:16:19;;;;;;;62.03;9.63;;;23.50;99.90;;;;;;4993643;28;20433;-66
2022/10/17 12:18:45;;;;;;;32.50;6.43;;;23.50;99.90;;;;;;5028962;28;20434;-69
2022/10/17 12:21:11;;;;;;;80.90;11.40;;;23.60;99.90;;;;;;5027422;28;21206;-67
2022/10/17 12:23:38;;;;;;;45.47;8.27;;;23.60;99.90;;;;;;5028922;28;20564;-67
2022/10/17 12:26:08;;;;;;;15.33;4.57;;;23.60;99.90;;;;;;5023227;28;20189;-67
2022/10/17 12:28:37;;;;;;;24.10;5.20;;;23.60;99.90;;;;;;5032293;28;20457;-66
2022/10/17 12:31:13;;;;;;;11.00;3.80;;;23.60;99.90;;;;;;5030142;28;20465;-67
2022/10/17 12:33:50;;;;;;;27.97;6.50;;;23.70;99.90;;;;;;5033126;28;20479;-67
2022/10/17 12:36:21;;;;;;;11.80;4.10;;;23.70;99.90;;;;;;5032317;28;20440;-67
2022/10/17 12:38:49;;;;;;;22.37;4.37;;;23.60;99.90;;;;;;5030789;28;20505;-67
2022/10/17 12:41:15;;;;;;;28.87;5.27;;;23.50;99.90;;;;;;5030330;28;20454;-67
2022/10/17 12:43:48;;;;;;;30.60;5.90;;;23.40;99.90;;;;;;5032611;28;20527;-67
2022/10/17 12:46:45;;;;;;;14.60;4.13;;;23.50;99.90;;;;;;5030427;28;20189;-67
2022/10/17 12:49:36;;;;;;;24.37;5.10;;;23.50;99.90;;;;;;5029170;28;20446;-67
2022/10/17 12:52:20;;;;;;;32.23;4.87;;;23.50;99.90;;;;;;5014539;28;20775;-67
2022/10/17 12:54:56;;;;;;;31.20;6.73;;;23.50;99.90;;;;;;5029226;28;21216;-67
2022/10/17 12:57:40;;;;;;;48.73;6.83;;;23.50;99.90;;;;;;5020386;28;20436;-67
2022/10/17 13:00:34;;;;;;;28.67;5.90;;;23.50;99.90;;;;;;5032132;28;20965;-67
2022/10/17 13:03:24;;;;;;;35.87;6.10;;;23.40;99.90;;;;;;5028382;28;20548;-67
2022/10/17 13:05:56;;;;;;;21.30;4.77;;;23.20;99.90;;;;;;5030302;28;20941;-68
2022/10/17 13:08:30;;;;;;;28.93;5.73;;;23.30;99.90;;;;;;5011513;28;20402;-66